Spirit Of Boston — WDD4774 — position and weather

sailwx.info

Track history (hours):
 
Tides and Currents Weather Stations Pressure Air Temp Water Temp Dewpoint Dewpoint Depression Visibility Wind Speed Wind Dir Waves Ship Positions

Spirit Of Boston

Owner: Spirit Cruises, LLC, Boston, MA. More information available from US FCC via Universal Licensing System and Coast Guard Vessel Documentation Center.

Last reported at 2018-Feb-14 09:58 UTC. Time now 2018-Feb-20 00:20 UTC.
Position N 41°34' W 070°50'.

; draft 3.5 m.

Type: Passenger vessel. MMSI: 367148860.

Date/timePositionNaut miles runAvg speedWind from/ knotsBaromVisibWave heightAir tempDewpointWater temp
2018-Feb-14 09:58N 41°34' W 070°50'4 6.7
2018-Feb-14 09:19N 41°37' W 070°46'25 6.0
2018-Feb-14 05:07N 42°00' W 070°32'9 7.1
2018-Feb-14 03:48N 42°09' W 070°36'2 7.2
2018-Feb-14 03:28N 42°11' W 070°38'3 7.3
2018-Feb-14 03:00N 42°14' W 070°41'4 7.5
2018-Feb-14 02:27N 42°17' W 070°45'3 7.5
2018-Feb-14 02:00N 42°18' W 070°49'4 7.8
2018-Feb-14 01:30N 42°19' W 070°54'4 7.2
2018-Feb-14 00:58N 42°20' W 070°59'  
2018-Feb-11 02:45N 42°21' W 071°02'0 0.7
2018-Feb-11 02:26N 42°22' W 071°02'1 1.1
2018-Feb-11 01:58N 42°22' W 071°03'2 4.5
2018-Feb-11 01:29N 42°20' W 071°00'2 4.1
2018-Feb-11 01:00N 42°20' W 070°58'2 3.5
2018-Feb-11 00:30N 42°20' W 071°00'  
2018-Feb-06 00:52N 42°21' W 071°03'2 5.6
2018-Feb-06 00:30N 42°20' W 071°00'  
Track history (hours):
 
Tides and Currents Weather Stations Pressure Air Temp Water Temp Dewpoint Dewpoint Depression Visibility Wind Speed Wind Dir Waves Ship Positions

Spirit Of Boston

Owner: Spirit Cruises, LLC, Boston, MA. More information available from US FCC via Universal Licensing System and Coast Guard Vessel Documentation Center.

Last reported at 2018-Feb-14 09:58 UTC. Time now 2018-Feb-20 00:20 UTC.
Position N 41°34' W 070°50'.

; draft 3.5 m.

Type: Passenger vessel. MMSI: 367148860.

Date/timePositionNaut miles runAvg speedWind from/ knotsBaromVisibWave heightAir tempDewpointWater temp
2018-Feb-14 09:58N 41°34' W 070°50'4 6.7
2018-Feb-14 09:19N 41°37' W 070°46'25 6.0
2018-Feb-14 05:07N 42°00' W 070°32'9 7.1
2018-Feb-14 03:48N 42°09' W 070°36'2 7.2
2018-Feb-14 03:28N 42°11' W 070°38'3 7.3
2018-Feb-14 03:00N 42°14' W 070°41'4 7.5
2018-Feb-14 02:27N 42°17' W 070°45'3 7.5
2018-Feb-14 02:00N 42°18' W 070°49'4 7.8
2018-Feb-14 01:30N 42°19' W 070°54'4 7.2
2018-Feb-14 00:58N 42°20' W 070°59'  
2018-Feb-11 02:45N 42°21' W 071°02'0 0.7
2018-Feb-11 02:26N 42°22' W 071°02'1 1.1
2018-Feb-11 01:58N 42°22' W 071°03'2 4.5
2018-Feb-11 01:29N 42°20' W 071°00'2 4.1
2018-Feb-11 01:00N 42°20' W 070°58'2 3.5
2018-Feb-11 00:30N 42°20' W 071°00'  
2018-Feb-06 00:52N 42°21' W 071°03'2 5.6
2018-Feb-06 00:30N 42°20' W 071°00'  

Dump ship's entire track history